createdAt,value
2022-07-25T00:01:54.992Z,64.50
2022-07-25T00:04:23.813Z,64.75
2022-07-25T00:06:50.693Z,65.03
2022-07-25T00:09:17.497Z,64.36
2022-07-25T00:11:44.425Z,64.85
2022-07-25T00:14:11.350Z,64.33
2022-07-25T00:16:38.410Z,64.57
2022-07-25T00:19:05.353Z,65.07
2022-07-25T00:21:32.808Z,65.31
2022-07-25T00:23:59.571Z,65.25
2022-07-25T00:26:26.330Z,64.95
2022-07-25T00:28:53.136Z,65.56
2022-07-25T00:31:20.022Z,65.63
2022-07-25T00:33:46.820Z,65.13
2022-07-25T00:36:13.616Z,64.91
2022-07-25T00:38:40.490Z,65.05
2022-07-25T00:41:07.476Z,64.09
2022-07-25T00:43:34.382Z,65.04
2022-07-25T00:46:01.509Z,65.36
2022-07-25T00:48:29.955Z,66.07
2022-07-25T00:50:57.208Z,65.78
2022-07-25T00:53:25.300Z,65.91
2022-07-25T00:55:53.051Z,65.04
2022-07-25T00:58:19.957Z,64.36
2022-07-25T01:00:47.962Z,63.06
2022-07-25T01:03:15.685Z,63.23
2022-07-25T01:05:42.836Z,63.33
2022-07-25T01:08:10.885Z,63.32
2022-07-25T01:10:38.213Z,62.42
2022-07-25T01:13:05.582Z,61.69
2022-07-25T01:15:32.633Z,61.56
2022-07-25T01:17:59.628Z,60.92
2022-07-25T01:20:30.168Z,60.83
2022-07-25T01:22:58.723Z,60.71
2022-07-25T01:25:27.528Z,61.06
2022-07-25T01:27:56.044Z,60.52
2022-07-25T01:30:24.924Z,60.34
2022-07-25T01:32:52.697Z,60.37
2022-07-25T01:35:20.217Z,60.71
2022-07-25T01:37:47.274Z,61.42
2022-07-25T01:40:15.206Z,61.76
2022-07-25T01:42:43.701Z,62.45
2022-07-25T01:45:12.851Z,61.59
2022-07-25T01:47:41.153Z,63.04
2022-07-25T01:50:09.341Z,62.71
2022-07-25T01:52:39.565Z,62.83
2022-07-25T01:55:07.518Z,63.09
2022-07-25T01:57:34.210Z,62.68
2022-07-25T02:00:07.028Z,63.78
2022-07-25T02:02:34.641Z,63.49
2022-07-25T02:05:01.488Z,64.05
2022-07-25T02:07:28.520Z,63.68
2022-07-25T02:09:56.991Z,63.88
2022-07-25T02:12:24.629Z,63.44
2022-07-25T02:14:51.417Z,63.93
2022-07-25T02:17:18.526Z,64.68
2022-07-25T02:19:45.380Z,64.75
2022-07-25T02:22:12.196Z,65.02
2022-07-25T02:24:39.077Z,64.73
2022-07-25T02:27:06.408Z,64.14
2022-07-25T02:29:34.228Z,64.26
2022-07-25T02:32:01.004Z,64.50
2022-07-25T02:34:27.886Z,63.68
2022-07-25T02:36:54.610Z,63.69
2022-07-25T02:39:21.799Z,64.28
2022-07-25T02:41:48.491Z,64.18
2022-07-25T02:44:15.240Z,65.18
2022-07-25T02:46:42.323Z,64.97
2022-07-25T02:49:09.166Z,64.95
2022-07-25T02:51:35.902Z,63.45
2022-07-25T02:54:02.638Z,63.54
2022-07-25T02:56:29.709Z,64.59
2022-07-25T02:58:57.788Z,64.46
2022-07-25T03:01:25.117Z,64.03
2022-07-25T03:03:52.157Z,63.96
2022-07-25T03:06:18.986Z,64.84
2022-07-25T03:08:45.804Z,65.28
2022-07-25T03:11:14.291Z,64.61
2022-07-25T03:13:41.101Z,64.32
2022-07-25T03:16:08.622Z,64.78
2022-07-25T03:18:35.587Z,64.40
2022-07-25T03:21:02.559Z,64.54
2022-07-25T03:23:30.973Z,64.55
2022-07-25T03:25:58.521Z,64.24
2022-07-25T03:28:25.517Z,63.44
2022-07-25T03:30:53.112Z,63.50
2022-07-25T03:33:19.948Z,64.35
2022-07-25T03:35:47.058Z,63.93
2022-07-25T03:38:13.808Z,64.12
2022-07-25T03:40:40.636Z,63.73
2022-07-25T03:43:07.331Z,63.84
2022-07-25T03:45:34.762Z,64.08
2022-07-25T03:48:02.172Z,64.06
2022-07-25T03:50:28.922Z,63.97
2022-07-25T03:52:56.064Z,63.21
2022-07-25T03:55:22.882Z,63.64
2022-07-25T03:57:49.672Z,63.41
2022-07-25T04:00:17.713Z,63.21
2022-07-25T04:02:44.804Z,63.58
2022-07-25T04:05:11.758Z,64.52
2022-07-25T04:07:39.257Z,64.50
2022-07-25T04:10:08.178Z,63.97
2022-07-25T04:12:34.954Z,64.70
2022-07-25T04:15:01.747Z,63.36
2022-07-25T04:17:28.435Z,63.70
2022-07-25T04:19:56.054Z,63.44
2022-07-25T04:22:23.442Z,63.59
2022-07-25T04:24:50.306Z,64.18
2022-07-25T04:27:17.077Z,63.78
2022-07-25T04:29:43.979Z,63.12
2022-07-25T04:32:10.770Z,63.50
2022-07-25T04:34:37.592Z,63.23
2022-07-25T04:37:04.325Z,63.50
2022-07-25T04:39:31.058Z,62.92
2022-07-25T04:41:57.871Z,63.16
2022-07-25T04:44:24.638Z,62.06
2022-07-25T04:46:51.869Z,61.87
2022-07-25T04:49:19.303Z,62.01
2022-07-25T04:51:46.093Z,62.56
2022-07-25T04:54:12.878Z,62.55
2022-07-25T04:56:39.677Z,62.29
2022-07-25T04:59:07.239Z,62.27
2022-07-25T05:01:35.413Z,62.23
2022-07-25T05:04:02.904Z,60.80
2022-07-25T05:06:29.909Z,60.40
2022-07-25T05:08:56.685Z,61.11
2022-07-25T05:11:23.558Z,61.25
2022-07-25T05:13:50.419Z,61.17
2022-07-25T05:16:17.556Z,60.46
2022-07-25T05:18:44.509Z,60.50
2022-07-25T05:21:14.168Z,60.07
2022-07-25T05:23:41.292Z,59.86
2022-07-25T05:26:08.262Z,59.36
2022-07-25T05:28:35.215Z,59.50
2022-07-25T05:31:02.041Z,58.92
2022-07-25T05:33:29.137Z,58.71
2022-07-25T05:35:56.057Z,57.87
2022-07-25T05:38:23.098Z,57.66
2022-07-25T05:40:52.300Z,57.64
2022-07-25T05:43:19.727Z,56.93
2022-07-25T05:45:47.554Z,56.21
2022-07-25T05:48:15.811Z,55.73
2022-07-25T05:50:44.158Z,55.43
2022-07-25T05:53:10.980Z,56.21
2022-07-25T05:55:40.826Z,55.63
2022-07-25T05:58:09.489Z,54.67
2022-07-25T06:00:37.549Z,54.39
2022-07-25T06:03:04.816Z,53.68
2022-07-25T06:05:32.235Z,53.74
2022-07-25T06:07:59.209Z,52.50
2022-07-25T06:10:26.120Z,51.72
2022-07-25T06:12:53.382Z,51.87
2022-07-25T06:15:22.755Z,51.34
2022-07-25T06:17:54.740Z,50.83
2022-07-25T06:20:21.930Z,50.62
2022-07-25T06:22:49.176Z,50.25
2022-07-25T06:25:16.580Z,49.91
2022-07-25T06:27:43.867Z,49.79
2022-07-25T06:30:20.081Z,50.04
2022-07-25T06:32:49.779Z,49.64
2022-07-25T06:35:18.319Z,48.82
2022-07-25T06:37:45.581Z,48.68
2022-07-25T06:40:13.249Z,48.55
2022-07-25T06:42:43.128Z,48.37
2022-07-25T06:45:11.719Z,47.76
2022-07-25T06:47:40.787Z,47.57
2022-07-25T06:50:12.442Z,48.57
2022-07-25T06:52:40.282Z,47.50
2022-07-25T06:55:09.973Z,47.99
2022-07-25T06:57:37.600Z,47.11
2022-07-25T07:00:09.836Z,46.89
2022-07-25T07:03:01.348Z,47.37
2022-07-25T07:05:32.734Z,46.30
2022-07-25T07:08:00.882Z,47.21
2022-07-25T07:10:28.778Z,46.25
2022-07-25T07:13:11.730Z,45.88
2022-07-25T07:15:45.610Z,45.31
2022-07-25T07:18:12.785Z,45.62
2022-07-25T07:20:39.547Z,45.93
2022-07-25T07:23:06.327Z,44.38
2022-07-25T07:25:33.695Z,44.57
2022-07-25T07:28:00.601Z,44.25
2022-07-25T07:30:58.725Z,44.31
2022-07-25T07:33:15.084Z,44.03
2022-07-25T07:35:45.416Z,42.94
2022-07-25T07:38:12.251Z,44.01
2022-07-25T07:40:39.083Z,43.08
2022-07-25T07:43:06.496Z,43.10
2022-07-25T07:45:33.249Z,42.48
2022-07-25T07:47:59.958Z,43.58
2022-07-25T07:50:28.758Z,42.67
2022-07-25T07:52:58.523Z,42.98
2022-07-25T07:55:45.305Z,43.63
2022-07-25T07:58:19.010Z,42.06
2022-07-25T08:00:52.077Z,42.23
2022-07-25T08:03:21.727Z,43.72
2022-07-25T08:05:49.855Z,41.44
2022-07-25T08:08:17.305Z,42.21
2022-07-25T08:10:47.835Z,41.08
2022-07-25T08:13:24.120Z,42.51
2022-07-25T08:15:55.968Z,41.36
2022-07-25T08:18:23.941Z,40.42
2022-07-25T08:20:52.852Z,41.27
2022-07-25T08:23:20.202Z,40.79
2022-07-25T08:25:47.424Z,40.50
2022-07-25T08:28:15.030Z,41.01
2022-07-25T08:30:42.896Z,41.09
2022-07-25T08:33:18.702Z,40.31
2022-07-25T08:35:53.502Z,40.71
2022-07-25T08:38:22.825Z,39.83
2022-07-25T08:40:50.861Z,41.44
2022-07-25T08:43:19.106Z,40.22
2022-07-25T08:45:53.466Z,39.59
2022-07-25T08:48:25.101Z,39.39
2022-07-25T08:50:54.138Z,39.09
2022-07-25T08:53:38.151Z,40.27
2022-07-25T08:56:13.358Z,39.16
2022-07-25T08:58:43.967Z,39.61
2022-07-25T09:01:13.286Z,39.36
2022-07-25T09:03:42.890Z,39.90
2022-07-25T09:06:22.127Z,38.45
2022-07-25T09:09:01.216Z,38.56
2022-07-25T09:11:37.779Z,38.22
2022-07-25T09:14:09.731Z,38.20
2022-07-25T09:16:41.034Z,38.84
2022-07-25T09:19:13.003Z,38.00
2022-07-25T09:21:43.298Z,37.98
2022-07-25T09:24:17.899Z,37.78
2022-07-25T09:26:57.294Z,36.90
2022-07-25T09:29:30.355Z,36.39
2022-07-25T09:32:00.056Z,36.48
2022-07-25T09:34:39.207Z,36.41
2022-07-25T09:37:15.320Z,36.99
2022-07-25T09:39:50.184Z,37.02
2022-07-25T09:42:21.975Z,36.02
2022-07-25T09:45:14.407Z,35.66
2022-07-25T09:47:58.583Z,35.95
2022-07-25T09:50:29.162Z,35.79
2022-07-25T09:53:01.894Z,36.17
2022-07-25T09:55:30.509Z,35.70
2022-07-25T09:57:57.541Z,36.05
2022-07-25T10:00:29.576Z,36.05
2022-07-25T10:03:20.789Z,34.95
2022-07-25T10:06:20.791Z,34.84
2022-07-25T10:08:50.895Z,35.27
2022-07-25T10:11:28.015Z,35.58
2022-07-25T10:13:56.517Z,35.03
2022-07-25T10:16:27.742Z,35.45
2022-07-25T10:18:58.229Z,33.77
2022-07-25T10:21:28.342Z,34.23
2022-07-25T10:24:07.527Z,34.26
2022-07-25T10:26:39.655Z,33.07
2022-07-25T10:29:12.757Z,33.69
2022-07-25T10:31:50.638Z,33.38
2022-07-25T10:34:33.355Z,32.78
2022-07-25T10:37:18.442Z,33.41
2022-07-25T10:39:46.570Z,33.21
2022-07-25T10:42:22.654Z,32.61
2022-07-25T10:44:58.603Z,33.00
2022-07-25T10:47:28.259Z,32.54
2022-07-25T10:53:07.803Z,31.35
2022-07-25T10:55:37.062Z,31.80
2022-07-25T10:58:17.593Z,32.05
2022-07-25T11:00:45.298Z,30.80
2022-07-25T11:03:17.701Z,30.95
2022-07-25T11:05:47.882Z,31.72
2022-07-25T11:08:23.075Z,31.66
2022-07-25T11:10:53.641Z,31.12
2022-07-25T11:13:20.950Z,31.75
2022-07-25T11:15:48.799Z,31.21
2022-07-25T11:18:18.481Z,31.21
2022-07-25T11:20:45.216Z,29.83
2022-07-25T11:23:11.996Z,30.02
2022-07-25T11:25:38.832Z,30.84
2022-07-25T11:28:05.568Z,30.47
2022-07-25T11:30:32.492Z,29.73
2022-07-25T11:33:01.703Z,30.47
2022-07-25T11:35:32.560Z,30.09
2022-07-25T11:38:02.428Z,30.81
2022-07-25T11:40:31.464Z,30.54
2022-07-25T11:42:59.801Z,30.48
2022-07-25T11:45:29.992Z,30.52
2022-07-25T11:48:13.510Z,29.57
2022-07-25T11:50:45.075Z,30.00
2022-07-25T11:53:16.511Z,30.62
2022-07-25T11:55:44.186Z,30.76
2022-07-25T11:58:14.258Z,29.62
2022-07-25T12:00:49.227Z,29.26
2022-07-25T12:03:21.153Z,29.41
2022-07-25T12:05:49.668Z,29.93
2022-07-25T12:08:21.132Z,29.82
2022-07-25T12:10:51.437Z,30.47
2022-07-25T12:13:27.699Z,29.77
2022-07-25T12:15:58.140Z,30.87
2022-07-25T12:18:25.378Z,29.18
2022-07-25T12:20:53.606Z,29.82
2022-07-25T12:23:21.960Z,29.14
2022-07-25T12:25:49.291Z,29.35
2022-07-25T12:28:16.449Z,29.11
2022-07-25T12:30:46.605Z,29.35
2022-07-25T12:33:14.472Z,28.63
2022-07-25T12:35:43.658Z,29.46
2022-07-25T12:38:11.458Z,29.14
2022-07-25T12:40:39.341Z,28.55
2022-07-25T12:43:06.481Z,27.66
2022-07-25T12:45:33.912Z,28.07
2022-07-25T12:48:00.986Z,28.40
2022-07-25T12:50:28.035Z,27.87
2022-07-25T12:52:55.162Z,28.64
2022-07-25T12:55:22.641Z,28.76
2022-07-25T12:57:50.593Z,27.50
2022-07-25T13:00:21.243Z,28.60
2022-07-25T13:02:56.058Z,28.15
2022-07-25T13:05:25.966Z,27.88
2022-07-25T13:07:52.940Z,27.64
2022-07-25T13:10:20.673Z,27.42
2022-07-25T13:12:47.805Z,27.58
2022-07-25T13:15:15.186Z,28.14
2022-07-25T13:17:41.993Z,28.55
2022-07-25T13:20:10.947Z,28.70
2022-07-25T13:22:38.000Z,29.04
2022-07-25T13:25:05.969Z,28.23
2022-07-25T13:27:32.820Z,28.70
2022-07-25T13:29:59.891Z,28.99
2022-07-25T13:32:28.497Z,28.82
2022-07-25T13:34:55.782Z,29.74
2022-07-25T13:37:23.429Z,30.13
2022-07-25T13:39:50.370Z,28.61
2022-07-25T13:42:17.932Z,29.42
2022-07-25T13:44:44.845Z,29.18
2022-07-25T13:47:11.760Z,29.13
2022-07-25T13:49:39.180Z,29.41
2022-07-25T13:52:06.866Z,28.52
2022-07-25T13:54:33.679Z,29.31
2022-07-25T13:57:02.816Z,28.53
2022-07-25T13:59:30.191Z,28.89
2022-07-25T14:01:57.199Z,29.24
2022-07-25T14:04:24.023Z,28.82
2022-07-25T14:06:52.256Z,28.86
2022-07-25T14:09:22.969Z,28.38
2022-07-25T14:11:49.703Z,27.89
2022-07-25T14:14:17.793Z,28.48
2022-07-25T14:16:44.841Z,27.51
2022-07-25T14:19:11.759Z,28.63
2022-07-25T14:21:38.555Z,26.33
2022-07-25T14:24:05.904Z,26.50
2022-07-25T14:26:34.840Z,27.04
2022-07-25T14:29:02.193Z,26.14
2022-07-25T14:31:29.304Z,26.59
2022-07-25T14:33:56.207Z,27.43
2022-07-25T14:36:22.953Z,27.56
2022-07-25T14:38:49.725Z,28.01
2022-07-25T14:41:16.909Z,27.38
2022-07-25T14:43:44.880Z,28.52
2022-07-25T14:46:11.709Z,26.84
2022-07-25T14:48:39.322Z,27.70
2022-07-25T14:51:07.745Z,28.94
2022-07-25T14:53:35.689Z,27.95
2022-07-25T14:56:04.816Z,28.12
2022-07-25T14:58:32.294Z,28.30
2022-07-25T15:00:59.195Z,27.28
2022-07-25T15:03:26.222Z,28.24
2022-07-25T15:05:53.128Z,28.32
2022-07-25T15:08:19.988Z,27.96
2022-07-25T15:10:47.071Z,28.49
2022-07-25T15:13:30.438Z,28.93
2022-07-25T15:15:58.941Z,29.81
2022-07-25T15:18:25.885Z,30.05
2022-07-25T15:20:52.690Z,29.86
2022-07-25T15:23:21.160Z,29.05
2022-07-25T15:26:04.767Z,29.42
2022-07-25T15:28:37.880Z,30.33
2022-07-25T15:31:06.290Z,29.67
2022-07-25T15:33:33.717Z,29.88
2022-07-25T15:36:00.608Z,30.26
2022-07-25T15:38:29.124Z,30.15
2022-07-25T15:40:55.947Z,29.15
2022-07-25T15:43:22.758Z,29.11
2022-07-25T15:45:49.829Z,28.76
2022-07-25T15:48:17.991Z,29.72
2022-07-25T15:50:51.473Z,29.35
2022-07-25T15:53:18.715Z,30.23
2022-07-25T15:55:45.576Z,29.22
2022-07-25T15:58:13.020Z,29.28
2022-07-25T16:00:41.820Z,27.30
2022-07-25T16:03:09.767Z,27.92
2022-07-25T16:05:38.980Z,29.82
2022-07-25T16:08:11.259Z,29.23
2022-07-25T16:10:38.755Z,29.01
2022-07-25T16:13:05.674Z,29.35
2022-07-25T16:15:32.519Z,28.74
2022-07-25T16:18:02.757Z,29.51
2022-07-25T16:20:32.421Z,28.55
2022-07-25T16:23:00.443Z,28.29
2022-07-25T16:25:29.298Z,28.11
2022-07-25T16:27:57.115Z,28.96
2022-07-25T16:30:24.219Z,29.41
2022-07-25T16:32:50.981Z,29.12
2022-07-25T16:35:18.055Z,30.40
2022-07-25T16:37:45.211Z,30.77
2022-07-25T16:40:12.568Z,30.29
2022-07-25T16:42:39.903Z,30.16
2022-07-25T16:45:08.107Z,31.35
2022-07-25T16:47:35.455Z,30.74
2022-07-25T16:50:02.292Z,30.68
2022-07-25T16:52:28.996Z,30.35
2022-07-25T16:54:55.808Z,31.60
2022-07-25T16:57:24.970Z,31.39
2022-07-25T16:59:53.709Z,33.03
2022-07-25T17:02:28.893Z,32.58
2022-07-25T17:04:57.324Z,32.47
2022-07-25T17:07:25.507Z,32.22
2022-07-25T17:09:52.875Z,32.34
2022-07-25T17:12:20.693Z,33.65
2022-07-25T17:14:47.575Z,35.63
2022-07-25T17:17:14.545Z,36.76
2022-07-25T17:19:41.499Z,38.97
2022-07-25T17:22:10.597Z,47.94
2022-07-25T17:24:39.385Z,60.67
2022-07-25T17:27:08.595Z,66.71
2022-07-25T17:29:36.053Z,70.26
2022-07-25T17:32:06.028Z,71.92
2022-07-25T17:34:33.621Z,69.93
2022-07-25T17:37:03.012Z,70.93
2022-07-25T17:39:34.436Z,70.53
2022-07-25T17:42:01.857Z,71.13
2022-07-25T17:44:28.971Z,71.70
2022-07-25T17:46:55.966Z,74.93
2022-07-25T17:49:22.952Z,78.01
2022-07-25T17:51:50.433Z,77.45
2022-07-25T17:54:17.556Z,79.78
2022-07-25T17:56:45.573Z,80.77
2022-07-25T17:59:13.127Z,83.98
2022-07-25T18:01:40.136Z,85.87
2022-07-25T18:04:07.348Z,87.85
2022-07-25T18:06:34.732Z,88.46
2022-07-25T18:09:01.620Z,85.80
2022-07-25T18:11:28.603Z,88.87
2022-07-25T18:13:55.347Z,91.11
2022-07-25T18:16:23.091Z,90.82
2022-07-25T18:18:50.471Z,88.07
2022-07-25T18:21:17.465Z,84.65
2022-07-25T18:23:44.187Z,82.95
2022-07-25T18:26:11.013Z,83.66
2022-07-25T18:28:38.369Z,83.34
2022-07-25T18:31:05.654Z,83.61
2022-07-25T18:33:32.872Z,89.48
2022-07-25T18:36:02.986Z,92.96
2022-07-25T18:38:33.881Z,87.79
2022-07-25T18:41:26.440Z,83.05
2022-07-25T18:43:49.122Z,82.37
2022-07-25T18:46:16.739Z,79.58
2022-07-25T18:48:45.203Z,78.57
2022-07-25T18:51:12.297Z,78.97
2022-07-25T18:53:39.173Z,82.23
2022-07-25T18:56:06.328Z,86.48
2022-07-25T18:58:33.629Z,87.00
2022-07-25T19:01:02.943Z,88.76
2022-07-25T19:03:32.689Z,88.49
2022-07-25T19:06:03.508Z,88.45
2022-07-25T19:08:31.162Z,89.47
2022-07-25T19:10:57.905Z,89.82
2022-07-25T19:13:47.562Z,94.80
2022-07-25T19:16:11.976Z,90.31
2022-07-25T19:18:40.243Z,86.73
2022-07-25T19:21:07.707Z,86.77
2022-07-25T19:23:34.986Z,88.73
2022-07-25T19:26:02.593Z,88.59
2022-07-25T19:28:30.171Z,86.93
2022-07-25T19:30:57.401Z,85.98
2022-07-25T19:33:24.499Z,86.08
2022-07-25T19:35:52.384Z,86.35
2022-07-25T19:38:20.225Z,84.92
2022-07-25T19:40:47.121Z,86.60
2022-07-25T19:43:14.060Z,86.00
2022-07-25T19:45:41.028Z,86.80
2022-07-25T19:48:08.406Z,86.22
2022-07-25T19:50:35.351Z,84.68
2022-07-25T19:53:02.351Z,83.63
2022-07-25T19:55:29.634Z,84.24
2022-07-25T19:57:56.603Z,84.26
2022-07-25T20:00:23.573Z,84.20
2022-07-25T20:02:50.412Z,85.89
2022-07-25T20:05:17.860Z,86.98
2022-07-25T20:07:45.383Z,93.11
2022-07-25T20:10:12.424Z,96.36
2022-07-25T20:12:40.427Z,97.98
2022-07-25T20:15:07.683Z,94.59
2022-07-25T20:17:35.130Z,90.66
2022-07-25T20:20:02.382Z,89.29
2022-07-25T20:22:29.256Z,90.36
2022-07-25T20:24:56.300Z,89.82
2022-07-25T20:27:23.107Z,89.84
2022-07-25T20:29:50.167Z,89.76
2022-07-25T20:32:17.165Z,87.57
2022-07-25T20:34:45.200Z,89.18
2022-07-25T20:37:11.940Z,91.93
2022-07-25T20:39:40.428Z,92.99
2022-07-25T20:42:09.719Z,91.53
2022-07-25T20:44:36.827Z,89.66
2022-07-25T20:47:04.479Z,88.73
2022-07-25T20:49:31.494Z,90.50
2022-07-25T20:51:58.592Z,90.46
2022-07-25T20:54:25.399Z,90.34
2022-07-25T20:56:53.099Z,90.15
2022-07-25T20:59:20.002Z,90.09
2022-07-25T21:01:46.905Z,88.43
2022-07-25T21:04:13.636Z,88.72
2022-07-25T21:06:40.362Z,88.30
2022-07-25T21:09:12.308Z,88.13
2022-07-25T21:11:39.745Z,88.71
2022-07-25T21:14:07.255Z,89.16
2022-07-25T21:16:35.019Z,88.85
2022-07-25T21:19:02.010Z,87.82
2022-07-25T21:21:28.969Z,85.72
2022-07-25T21:23:55.724Z,85.35
2022-07-25T21:26:22.570Z,86.80
2022-07-25T21:28:49.504Z,87.12
2022-07-25T21:31:19.075Z,88.16
2022-07-25T21:33:45.896Z,88.24
2022-07-25T21:36:12.598Z,90.60
2022-07-25T21:38:39.455Z,90.42
2022-07-25T21:41:07.173Z,90.32
2022-07-25T21:43:34.234Z,90.82
2022-07-25T21:46:01.131Z,91.13
2022-07-25T21:48:47.103Z,91.03
2022-07-25T21:51:18.935Z,91.77
2022-07-25T21:53:52.476Z,92.13
2022-07-25T21:56:19.860Z,92.78
2022-07-25T21:58:46.744Z,94.32
2022-07-25T22:01:14.101Z,93.62
2022-07-25T22:03:41.006Z,93.75
2022-07-25T22:06:08.472Z,93.28
2022-07-25T22:08:35.297Z,94.03
2022-07-25T22:11:15.763Z,94.38
2022-07-25T22:13:43.363Z,95.39
2022-07-25T22:16:10.483Z,95.96
2022-07-25T22:18:37.301Z,96.54
2022-07-25T22:21:04.609Z,96.64
2022-07-25T22:23:31.319Z,96.59
2022-07-25T22:25:58.057Z,96.97
2022-07-25T22:28:24.990Z,96.54
2022-07-25T22:30:51.768Z,96.83
2022-07-25T22:33:18.634Z,95.94
2022-07-25T22:35:45.426Z,95.68
2022-07-25T22:38:12.357Z,95.32
2022-07-25T22:40:39.137Z,95.59
2022-07-25T22:43:05.835Z,96.44
2022-07-25T22:45:32.728Z,97.00
2022-07-25T22:47:59.607Z,96.86
2022-07-25T22:50:26.351Z,98.13
2022-07-25T22:52:53.127Z,96.79
2022-07-25T22:55:20.604Z,97.92
2022-07-25T22:57:49.667Z,97.57
2022-07-25T23:00:17.373Z,97.14
2022-07-25T23:02:45.152Z,98.37
2022-07-25T23:05:12.200Z,99.56
2022-07-25T23:07:39.012Z,99.93
2022-07-25T23:10:06.999Z,99.43
2022-07-25T23:12:34.021Z,99.58
2022-07-25T23:15:01.084Z,100.00
2022-07-25T23:17:28.013Z,100.00
2022-07-25T23:19:56.549Z,100.00
2022-07-25T23:22:28.311Z,99.52
2022-07-25T23:24:56.860Z,99.40
2022-07-25T23:27:24.695Z,99.19
2022-07-25T23:29:52.033Z,99.84
2022-07-25T23:32:18.936Z,99.26
2022-07-25T23:34:45.724Z,97.08
2022-07-25T23:37:12.724Z,96.67
2022-07-25T23:39:39.448Z,98.73
2022-07-25T23:42:06.354Z,99.94
2022-07-25T23:44:33.329Z,100.00
2022-07-25T23:47:04.259Z,100.00
2022-07-25T23:49:34.698Z,100.00
2022-07-25T23:52:01.564Z,100.00
2022-07-25T23:54:28.308Z,100.00
2022-07-25T23:56:55.154Z,100.00
2022-07-25T23:59:22.028Z,100.00
